Terminal Aerodrome Forecast
Issued by NWS San Angelo, TX

Home | Current Version | Previous Version | Text Only | Print | Product List | Glossary On
Versions: 1 2 3 4 5 6 7 8 9 10 11 12 13 14 15 16 17 18 19 20 21
803
FTUS44 KSJT 232321
TAFSJT
TAF
KSJT 232321Z 2400/2424 18014G23KT P6SM SCT050
     FM240200 17008KT P6SM BKN250
     FM241200 18010KT P6SM BKN025
     FM241500 19013G21KT P6SM SCT030=

USA.gov is the U.S. government's official web portal to all federal, state and local government web resources and services.